createdAt,value
2018-02-01T00:00:09.806Z,94.70
2018-02-01T00:01:09.833Z,94.42
2018-02-01T00:02:09.849Z,94.51
2018-02-01T00:03:09.883Z,94.23
2018-02-01T00:04:09.896Z,94.42
2018-02-01T00:05:09.941Z,93.75
2018-02-01T00:06:10.037Z,94.13
2018-02-01T00:07:09.989Z,93.37
2018-02-01T00:08:10.080Z,93.84
2018-02-01T00:09:10.018Z,92.51
2018-02-01T00:10:10.036Z,92.23
2018-02-01T00:11:10.057Z,91.09
2018-02-01T00:12:10.086Z,91.09
2018-02-01T00:13:10.100Z,90.90
2018-02-01T00:14:10.127Z,91.09
2018-02-01T00:15:10.166Z,89.95
2018-02-01T00:16:10.168Z,89.47
2018-02-01T00:17:10.191Z,89.28
2018-02-01T00:18:10.231Z,89.38
2018-02-01T00:19:10.251Z,89.14
2018-02-01T00:20:10.270Z,89.24
2018-02-01T00:21:10.295Z,88.86
2018-02-01T00:22:10.322Z,88.39
2018-02-01T00:23:10.325Z,88.86
2018-02-01T00:24:10.352Z,88.71
2018-02-01T00:25:10.388Z,89.00
2018-02-01T00:26:10.400Z,88.34
2018-02-01T00:27:10.417Z,88.90
2018-02-01T00:28:10.435Z,88.86
2018-02-01T00:29:10.464Z,88.39
2018-02-01T00:30:10.603Z,89.53
2018-02-01T00:31:10.518Z,89.57
2018-02-01T00:32:10.533Z,89.53
2018-02-01T00:33:10.548Z,89.62
2018-02-01T00:34:10.572Z,90.05
2018-02-01T00:35:10.600Z,89.76
2018-02-01T00:36:10.623Z,90.66
2018-02-01T00:37:10.642Z,90.42
2018-02-01T00:38:10.660Z,90.76
2018-02-01T00:39:10.685Z,90.19
2018-02-01T00:40:10.708Z,90.38
2018-02-01T00:41:10.728Z,91.24
2018-02-01T00:42:10.765Z,91.04
2018-02-01T00:43:10.776Z,90.95
2018-02-01T00:44:10.798Z,91.33
2018-02-01T00:45:10.822Z,91.80
2018-02-01T00:46:10.840Z,91.71
2018-02-01T00:47:10.863Z,90.85
2018-02-01T00:48:10.895Z,90.76
2018-02-01T00:49:10.911Z,90.95
2018-02-01T00:50:10.932Z,90.09
2018-02-01T00:51:10.954Z,89.90
2018-02-01T00:52:10.975Z,89.43
2018-02-01T00:53:10.995Z,89.81
2018-02-01T00:54:11.027Z,89.81
2018-02-01T00:55:11.041Z,89.81
2018-02-01T00:56:11.064Z,89.72
2018-02-01T00:57:11.092Z,89.62
2018-02-01T00:58:11.107Z,88.86
2018-02-01T00:59:11.140Z,88.86
2018-02-01T01:00:11.156Z,88.86
2018-02-01T01:01:11.181Z,88.67
2018-02-01T01:02:11.198Z,88.39
2018-02-01T01:03:11.220Z,88.39
2018-02-01T01:04:11.261Z,88.76
2018-02-01T01:05:11.265Z,87.91
2018-02-01T01:06:11.289Z,87.62
2018-02-01T01:07:11.338Z,88.01
2018-02-01T01:08:11.342Z,88.48
2018-02-01T01:09:11.373Z,88.48
2018-02-01T01:10:11.375Z,88.01
2018-02-01T01:11:11.404Z,87.15
2018-02-01T01:12:11.426Z,87.53
2018-02-01T01:13:11.447Z,88.10
2018-02-01T01:14:11.465Z,87.82
2018-02-01T01:15:11.489Z,87.72
2018-02-01T01:16:11.512Z,87.24
2018-02-01T01:17:11.528Z,87.34
2018-02-01T01:18:11.559Z,87.43
2018-02-01T01:19:11.578Z,87.91
2018-02-01T01:20:11.598Z,87.72
2018-02-01T01:21:11.629Z,87.24
2018-02-01T01:22:11.655Z,87.34
2018-02-01T01:23:11.667Z,87.05
2018-02-01T01:24:11.700Z,87.15
2018-02-01T01:25:11.712Z,87.43
2018-02-01T01:26:11.730Z,87.34
2018-02-01T01:27:11.752Z,87.43
2018-02-01T01:28:11.779Z,87.34
2018-02-01T01:29:11.808Z,87.24
2018-02-01T01:30:11.821Z,87.24
2018-02-01T01:31:11.856Z,87.53
2018-02-01T01:32:11.874Z,87.72
2018-02-01T01:33:11.899Z,87.72
2018-02-01T01:34:11.910Z,87.72
2018-02-01T01:35:11.934Z,87.62
2018-02-01T01:36:11.962Z,87.72
2018-02-01T01:37:11.974Z,87.53
2018-02-01T01:38:11.999Z,87.34
2018-02-01T01:39:12.024Z,87.72
2018-02-01T01:40:12.046Z,86.96
2018-02-01T01:41:12.064Z,87.62
2018-02-01T01:42:12.108Z,87.05
2018-02-01T01:43:12.116Z,87.24
2018-02-01T01:44:12.144Z,87.15
2018-02-01T01:45:12.154Z,87.15
2018-02-01T01:46:12.180Z,87.05
2018-02-01T01:47:12.203Z,87.53
2018-02-01T01:48:12.229Z,87.43
2018-02-01T01:49:12.240Z,87.34
2018-02-01T01:50:12.264Z,87.82
2018-02-01T01:51:12.292Z,87.62
2018-02-01T01:52:12.310Z,88.01
2018-02-01T01:53:12.340Z,87.91
2018-02-01T01:54:12.349Z,88.57
2018-02-01T01:55:12.410Z,87.91
2018-02-01T01:56:12.402Z,88.29
2018-02-01T01:57:12.423Z,88.67
2018-02-01T01:58:12.443Z,88.48
2018-02-01T01:59:12.466Z,88.29
2018-02-01T02:00:12.490Z,88.48
2018-02-01T02:01:12.506Z,88.39
2018-02-01T02:02:12.535Z,88.39
2018-02-01T02:03:12.550Z,88.48
2018-02-01T02:04:12.588Z,88.53
2018-02-01T02:05:12.595Z,88.76
2018-02-01T02:06:12.638Z,88.76
2018-02-01T02:07:12.647Z,88.86
2018-02-01T02:08:12.673Z,88.95
2018-02-01T02:09:12.692Z,88.95
2018-02-01T02:10:12.707Z,89.10
2018-02-01T02:11:12.740Z,88.53
2018-02-01T02:12:12.751Z,89.00
2018-02-01T02:13:12.771Z,88.62
2018-02-01T02:14:12.800Z,88.91
2018-02-01T02:15:12.817Z,88.81
2018-02-01T02:16:12.842Z,88.62
2018-02-01T02:17:12.857Z,88.81
2018-02-01T02:18:12.889Z,88.53
2018-02-01T02:19:12.906Z,89.39
2018-02-01T02:20:12.939Z,88.72
2018-02-01T02:21:12.948Z,88.53
2018-02-01T02:22:12.975Z,88.81
2018-02-01T02:23:12.993Z,89.00
2018-02-01T02:24:13.012Z,88.53
2018-02-01T02:25:13.040Z,88.81
2018-02-01T02:26:13.060Z,88.72
2018-02-01T02:27:13.088Z,88.91
2018-02-01T02:28:13.100Z,88.62
2018-02-01T02:29:13.121Z,89.00
2018-02-01T02:30:13.146Z,88.34
2018-02-01T02:31:13.183Z,88.91
2018-02-01T02:32:13.192Z,89.20
2018-02-01T02:33:13.217Z,89.00
2018-02-01T02:34:13.239Z,88.43
2018-02-01T02:35:13.265Z,88.91
2018-02-01T02:36:13.274Z,88.62
2018-02-01T02:37:13.301Z,88.91
2018-02-01T02:38:13.339Z,89.00
2018-02-01T02:39:13.346Z,88.91
2018-02-01T02:40:13.361Z,89.76
2018-02-01T02:41:13.386Z,89.29
2018-02-01T02:42:13.424Z,89.24
2018-02-01T02:43:13.431Z,88.81
2018-02-01T02:44:13.452Z,88.72
2018-02-01T02:45:13.485Z,88.81
2018-02-01T02:46:13.498Z,88.91
2018-02-01T02:47:13.526Z,89.00
2018-02-01T02:48:13.552Z,89.00
2018-02-01T02:49:13.575Z,88.81
2018-02-01T02:50:13.581Z,88.81
2018-02-01T02:51:13.610Z,88.81
2018-02-01T02:52:13.639Z,88.81
2018-02-01T02:53:13.649Z,88.62
2018-02-01T02:54:13.684Z,88.91
2018-02-01T02:55:13.701Z,88.81
2018-02-01T02:56:13.764Z,88.81
2018-02-01T02:57:13.749Z,89.29
2018-02-01T02:58:13.766Z,88.53
2018-02-01T02:59:13.785Z,89.20
2018-02-01T03:00:13.802Z,88.53
2018-02-01T03:01:13.828Z,88.62
2018-02-01T03:02:13.854Z,88.72
2018-02-01T03:03:13.874Z,88.72
2018-02-01T03:04:13.888Z,89.00
2018-02-01T03:05:14.019Z,88.91
2018-02-01T03:06:13.938Z,88.81
2018-02-01T03:07:13.964Z,88.34
2018-02-01T03:08:13.980Z,88.72
2018-02-01T03:09:14.014Z,88.62
2018-02-01T03:10:14.024Z,88.91
2018-02-01T03:11:14.051Z,88.43
2018-02-01T03:12:14.087Z,88.81
2018-02-01T03:13:14.090Z,88.81
2018-02-01T03:14:14.111Z,89.58
2018-02-01T03:15:14.130Z,89.00
2018-02-01T03:16:14.163Z,89.58
2018-02-01T03:17:14.177Z,89.48
2018-02-01T03:18:14.251Z,89.20
2018-02-01T03:19:14.218Z,89.29
2018-02-01T03:20:14.244Z,89.76
2018-02-01T03:21:14.264Z,89.48
2018-02-01T03:22:14.284Z,89.48
2018-02-01T03:23:14.311Z,89.48
2018-02-01T03:24:14.330Z,88.81
2018-02-01T03:25:14.348Z,89.10
2018-02-01T03:26:14.374Z,89.20
2018-02-01T03:27:14.394Z,89.29
2018-02-01T03:28:14.423Z,89.58
2018-02-01T03:29:14.460Z,89.20
2018-02-01T03:30:14.464Z,89.10
2018-02-01T03:31:14.489Z,89.39
2018-02-01T03:32:14.502Z,89.48
2018-02-01T03:33:14.540Z,89.39
2018-02-01T03:34:14.545Z,88.81
2018-02-01T03:35:14.574Z,88.81
2018-02-01T03:36:14.595Z,88.81
2018-02-01T03:37:14.618Z,89.10
2018-02-01T03:38:14.633Z,89.00
2018-02-01T03:39:14.669Z,88.72
2018-02-01T03:40:14.681Z,88.81
2018-02-01T03:41:14.702Z,88.91
2018-02-01T03:42:14.725Z,88.81
2018-02-01T03:43:14.744Z,88.81
2018-02-01T03:44:14.768Z,88.62
2018-02-01T03:45:14.787Z,88.62
2018-02-01T03:46:14.806Z,88.81
2018-02-01T03:47:14.832Z,88.43
2018-02-01T03:48:14.861Z,88.62
2018-02-01T03:49:14.877Z,88.81
2018-02-01T03:50:14.893Z,89.00
2018-02-01T03:51:14.927Z,88.62
2018-02-01T03:52:14.939Z,89.00
2018-02-01T03:53:14.971Z,89.00
2018-02-01T03:54:14.983Z,88.62
2018-02-01T03:55:15.006Z,89.00
2018-02-01T03:56:15.026Z,89.00
2018-02-01T03:57:15.046Z,88.91
2018-02-01T03:58:15.074Z,89.00
2018-02-01T03:59:15.092Z,88.81
2018-02-01T04:00:15.111Z,89.00
2018-02-01T04:01:15.137Z,88.34
2018-02-01T04:02:15.159Z,88.72
2018-02-01T04:03:15.176Z,88.53
2018-02-01T04:04:15.200Z,88.81
2018-02-01T04:05:15.228Z,89.00
2018-02-01T04:06:15.243Z,89.20
2018-02-01T04:07:15.265Z,88.81
2018-02-01T04:08:15.288Z,88.72
2018-02-01T04:09:15.309Z,88.72
2018-02-01T04:10:15.343Z,89.00
2018-02-01T04:11:15.353Z,89.10
2018-02-01T04:12:15.379Z,89.48
2018-02-01T04:13:15.395Z,89.39
2018-02-01T04:14:15.420Z,89.20
2018-02-01T04:15:15.437Z,88.62
2018-02-01T04:16:15.475Z,89.39
2018-02-01T04:17:15.481Z,89.48
2018-02-01T04:18:15.518Z,89.20
2018-02-01T04:19:15.527Z,89.10
2018-02-01T04:20:15.546Z,89.29
2018-02-01T04:21:15.579Z,89.48
2018-02-01T04:22:15.592Z,89.10
2018-02-01T04:23:15.616Z,88.72
2018-02-01T04:24:15.641Z,88.81
2018-02-01T04:25:15.661Z,88.81
2018-02-01T04:26:15.683Z,88.62
2018-02-01T04:27:15.701Z,88.62
2018-02-01T04:28:16.385Z,89.10
2018-02-01T04:29:15.740Z,89.00
2018-02-01T04:30:15.772Z,89.29
2018-02-01T04:31:15.785Z,89.48
2018-02-01T04:32:15.808Z,88.91
2018-02-01T04:33:15.833Z,89.00
2018-02-01T04:34:15.855Z,89.00
2018-02-01T04:35:15.876Z,89.00
2018-02-01T04:36:15.897Z,89.29
2018-02-01T04:37:15.920Z,89.00
2018-02-01T04:38:15.951Z,88.81
2018-02-01T04:39:15.962Z,88.81
2018-02-01T04:40:15.986Z,89.00
2018-02-01T04:41:16.885Z,89.20
2018-02-01T04:42:16.039Z,88.62
2018-02-01T04:43:16.051Z,89.00
2018-02-01T04:44:16.075Z,88.81
2018-02-01T04:45:16.093Z,89.00
2018-02-01T04:46:16.114Z,88.53
2018-02-01T04:47:16.141Z,88.72
2018-02-01T04:48:16.174Z,88.81
2018-02-01T04:49:16.188Z,88.62
2018-02-01T04:50:16.197Z,88.72
2018-02-01T04:51:16.227Z,88.81
2018-02-01T04:52:16.243Z,88.81
2018-02-01T04:53:16.265Z,88.43
2018-02-01T04:54:16.381Z,88.15
2018-02-01T04:55:16.317Z,88.81
2018-02-01T04:56:16.341Z,88.62
2018-02-01T04:57:16.358Z,88.81
2018-02-01T04:58:16.385Z,88.43
2018-02-01T04:59:16.397Z,88.24
2018-02-01T05:00:16.427Z,88.81
2018-02-01T05:01:16.447Z,88.43
2018-02-01T05:02:16.461Z,88.24
2018-02-01T05:03:16.489Z,89.29
2018-02-01T05:04:16.503Z,88.62
2018-02-01T05:05:16.546Z,89.10
2018-02-01T05:06:16.555Z,88.62
2018-02-01T05:07:16.592Z,89.00
2018-02-01T05:08:16.601Z,88.81
2018-02-01T05:09:16.613Z,88.72
2018-02-01T05:10:16.636Z,88.72
2018-02-01T05:11:16.654Z,88.43
2018-02-01T05:12:16.734Z,89.29
2018-02-01T05:13:16.705Z,89.48
2018-02-01T05:14:16.727Z,89.48
2018-02-01T05:15:16.748Z,89.48
2018-02-01T05:16:16.783Z,89.86
2018-02-01T05:17:16.789Z,89.76
2018-02-01T05:18:16.812Z,89.76
2018-02-01T05:19:16.833Z,90.24
2018-02-01T05:20:16.855Z,89.58
2018-02-01T05:21:16.893Z,89.86
2018-02-01T05:22:16.913Z,90.33
2018-02-01T05:23:16.927Z,90.24
2018-02-01T05:24:16.942Z,90.43
2018-02-01T05:25:16.961Z,90.52
2018-02-01T05:26:16.996Z,89.67
2018-02-01T05:27:17.012Z,90.43
2018-02-01T05:28:17.026Z,90.24
2018-02-01T05:29:17.054Z,89.76
2018-02-01T05:30:17.076Z,89.86
2018-02-01T05:31:17.089Z,89.95
2018-02-01T05:32:17.121Z,90.24
2018-02-01T05:33:17.143Z,89.39
2018-02-01T05:34:17.158Z,89.48
2018-02-01T05:35:17.177Z,89.20
2018-02-01T05:36:17.205Z,88.43
2018-02-01T05:37:17.230Z,88.53
2018-02-01T05:38:17.243Z,87.77
2018-02-01T05:39:17.269Z,87.68
2018-02-01T05:40:17.301Z,88.24
2018-02-01T05:41:17.312Z,89.00
2018-02-01T05:42:17.332Z,88.81
2018-02-01T05:43:17.357Z,88.81
2018-02-01T05:44:17.385Z,87.49
2018-02-01T05:45:17.392Z,88.24
2018-02-01T05:46:17.422Z,87.96
2018-02-01T05:47:17.438Z,86.35
2018-02-01T05:48:17.467Z,87.68
2018-02-01T05:49:17.476Z,86.54
2018-02-01T05:50:17.533Z,86.91
2018-02-01T05:51:17.533Z,86.72
2018-02-01T05:52:17.545Z,86.63
2018-02-01T05:53:17.580Z,86.63
2018-02-01T05:54:17.587Z,86.63
2018-02-01T05:55:17.612Z,87.20
2018-02-01T05:56:17.632Z,86.82
2018-02-01T05:57:17.653Z,87.49
2018-02-01T05:58:17.692Z,87.49
2018-02-01T05:59:17.708Z,88.06
2018-02-01T06:00:17.734Z,86.82
2018-02-01T06:01:17.742Z,86.82
2018-02-01T06:02:17.762Z,86.35
2018-02-01T06:03:17.783Z,86.82
2018-02-01T06:04:17.890Z,86.91
2018-02-01T06:05:17.839Z,86.63
2018-02-01T06:06:17.910Z,87.77
2018-02-01T06:07:17.876Z,87.30
2018-02-01T06:08:17.897Z,86.82
2018-02-01T06:09:17.922Z,87.30
2018-02-01T06:10:17.934Z,87.20
2018-02-01T06:11:17.958Z,87.20
2018-02-01T06:12:17.995Z,87.30
2018-02-01T06:13:18.009Z,87.01
2018-02-01T06:14:18.031Z,87.11
2018-02-01T06:15:18.042Z,86.54
2018-02-01T06:16:18.061Z,85.87
2018-02-01T06:17:18.099Z,86.72
2018-02-01T06:18:18.107Z,85.82
2018-02-01T06:19:18.154Z,84.92
2018-02-01T06:20:18.152Z,84.17
2018-02-01T06:21:18.190Z,84.45
2018-02-01T06:22:18.201Z,84.92
2018-02-01T06:23:18.239Z,85.21
2018-02-01T06:24:18.245Z,85.40
2018-02-01T06:25:18.257Z,85.40
2018-02-01T06:26:18.284Z,85.68
2018-02-01T06:27:18.309Z,85.87
2018-02-01T06:28:18.332Z,86.16
2018-02-01T06:29:18.350Z,86.07
2018-02-01T06:30:18.372Z,86.54
2018-02-01T06:31:18.384Z,86.54
2018-02-01T06:32:18.447Z,86.16
2018-02-01T06:33:18.453Z,86.63
2018-02-01T06:34:18.454Z,86.35
2018-02-01T06:35:18.481Z,86.25
2018-02-01T06:36:18.499Z,86.63
2018-02-01T06:37:18.521Z,86.63
2018-02-01T06:38:18.535Z,86.63
2018-02-01T06:39:18.559Z,86.44
2018-02-01T06:40:18.596Z,86.63
2018-02-01T06:41:18.600Z,86.63
2018-02-01T06:42:18.626Z,86.68
2018-02-01T06:43:18.685Z,86.72
2018-02-01T06:44:18.671Z,86.68
2018-02-01T06:45:18.685Z,86.97
2018-02-01T06:46:18.712Z,87.06
2018-02-01T06:47:18.746Z,87.16
2018-02-01T06:48:18.753Z,86.87
2018-02-01T06:49:18.781Z,87.06
2018-02-01T06:50:18.795Z,86.97
2018-02-01T06:51:18.822Z,86.87
2018-02-01T06:52:18.835Z,86.59
2018-02-01T06:53:18.860Z,86.49
2018-02-01T06:54:18.899Z,86.68
2018-02-01T06:55:18.933Z,86.87
2018-02-01T06:56:18.942Z,86.87
2018-02-01T06:57:18.954Z,86.40
2018-02-01T06:58:18.990Z,86.78
2018-02-01T06:59:18.983Z,86.97
2018-02-01T07:00:19.006Z,86.68
2018-02-01T07:01:19.054Z,85.74
2018-02-01T07:02:19.106Z,85.93
2018-02-01T07:03:19.086Z,85.93
2018-02-01T07:04:19.099Z,86.30
2018-02-01T07:05:19.114Z,86.68
2018-02-01T07:06:19.135Z,85.74
2018-02-01T07:07:19.158Z,85.83
2018-02-01T07:08:19.208Z,86.11
2018-02-01T07:09:19.222Z,85.64
2018-02-01T07:10:19.229Z,85.83
2018-02-01T07:11:19.247Z,85.83
2018-02-01T07:12:19.298Z,85.93
2018-02-01T07:13:19.293Z,85.36
2018-02-01T07:14:19.314Z,85.64
2018-02-01T07:15:19.336Z,85.45
2018-02-01T07:16:19.404Z,85.26
2018-02-01T07:17:19.372Z,85.17
2018-02-01T07:18:19.389Z,85.45
2018-02-01T07:19:19.432Z,85.36
2018-02-01T07:20:19.490Z,85.17
2018-02-01T07:21:19.464Z,85.07
2018-02-01T07:22:19.482Z,85.07
2018-02-01T07:23:19.513Z,85.26
2018-02-01T07:24:19.570Z,85.07
2018-02-01T07:25:19.538Z,85.26
2018-02-01T07:26:19.596Z,84.78
2018-02-01T07:27:19.590Z,84.88
2018-02-01T07:28:19.606Z,84.31
2018-02-01T07:29:19.642Z,84.41
2018-02-01T07:30:19.650Z,84.41
2018-02-01T07:31:19.679Z,84.31
2018-02-01T07:32:19.688Z,84.50
2018-02-01T07:33:19.719Z,84.12
2018-02-01T07:34:19.749Z,84.50
2018-02-01T07:35:19.752Z,84.12
2018-02-01T07:36:19.773Z,84.12
2018-02-01T07:37:19.803Z,84.12
2018-02-01T07:38:19.856Z,84.50
2018-02-01T07:39:19.839Z,84.88
2018-02-01T07:40:19.869Z,84.12
2018-02-01T07:41:19.885Z,84.12
2018-02-01T07:42:19.977Z,84.50
2018-02-01T07:43:19.939Z,84.50
2018-02-01T07:44:19.950Z,84.12
2018-02-01T07:45:19.974Z,84.31
2018-02-01T07:46:19.988Z,84.78
2018-02-01T07:47:20.022Z,84.41
2018-02-01T07:48:20.034Z,84.31
2018-02-01T07:49:20.056Z,84.12
2018-02-01T07:50:20.078Z,84.31
2018-02-01T07:51:20.093Z,84.78
2018-02-01T07:52:20.112Z,84.78
2018-02-01T07:53:20.145Z,84.31
2018-02-01T07:54:20.161Z,84.22
2018-02-01T07:55:20.274Z,84.88
2018-02-01T07:56:20.201Z,84.98
2018-02-01T07:57:20.221Z,85.26
2018-02-01T07:58:20.252Z,84.69
2018-02-01T07:59:20.270Z,85.17
2018-02-01T08:00:20.296Z,85.55
2018-02-01T08:01:20.307Z,85.55
2018-02-01T08:02:20.339Z,85.64
2018-02-01T08:03:20.348Z,85.36
2018-02-01T08:04:20.369Z,85.26
2018-02-01T08:05:20.405Z,85.74
2018-02-01T08:06:20.506Z,85.55
2018-02-01T08:07:20.462Z,85.45
2018-02-01T08:08:20.462Z,85.26
2018-02-01T08:09:20.488Z,85.45
2018-02-01T08:10:20.494Z,85.26
2018-02-01T08:11:20.526Z,85.26
2018-02-01T08:12:20.551Z,85.36
2018-02-01T08:13:20.571Z,85.26
2018-02-01T08:14:20.595Z,85.36
2018-02-01T08:15:20.603Z,85.36
2018-02-01T08:16:20.648Z,84.98
2018-02-01T08:17:20.645Z,85.45
2018-02-01T08:18:20.674Z,85.45
2018-02-01T08:19:20.696Z,85.26
2018-02-01T08:20:20.712Z,85.45
2018-02-01T08:21:20.744Z,85.36
2018-02-01T08:22:20.760Z,85.74
2018-02-01T08:23:20.785Z,86.02
2018-02-01T08:24:20.798Z,85.36
2018-02-01T08:25:20.817Z,86.02
2018-02-01T08:26:20.850Z,85.83
2018-02-01T08:27:20.883Z,85.26
2018-02-01T08:28:20.883Z,86.11
2018-02-01T08:29:20.917Z,86.49
2018-02-01T08:30:20.936Z,86.49
2018-02-01T08:31:20.963Z,86.21
2018-02-01T08:32:20.971Z,85.26
2018-02-01T08:33:21.001Z,85.26
2018-02-01T08:34:21.008Z,85.07
2018-02-01T08:35:21.031Z,85.36
2018-02-01T08:36:21.056Z,86.02
2018-02-01T08:37:21.077Z,85.83
2018-02-01T08:38:21.103Z,86.68
2018-02-01T08:39:21.119Z,86.59
2018-02-01T08:40:21.149Z,84.59
2018-02-01T08:41:21.161Z,87.35
2018-02-01T08:42:21.180Z,85.45
2018-02-01T08:43:21.217Z,84.98
2018-02-01T08:44:21.221Z,85.64
2018-02-01T08:45:21.244Z,85.07
2018-02-01T08:46:21.268Z,84.50
2018-02-01T08:47:21.305Z,84.03
2018-02-01T08:48:21.308Z,84.22
2018-02-01T08:49:21.332Z,84.12
2018-02-01T08:50:21.355Z,83.65
2018-02-01T08:51:21.373Z,85.26
2018-02-01T08:52:21.392Z,84.12
2018-02-01T08:53:21.414Z,83.97
2018-02-01T08:54:21.437Z,84.17
2018-02-01T08:55:21.463Z,83.55
2018-02-01T08:56:21.485Z,83.88
2018-02-01T08:57:21.523Z,82.84
2018-02-01T08:58:21.521Z,82.60
2018-02-01T08:59:21.544Z,82.32
2018-02-01T09:00:21.579Z,82.42
2018-02-01T09:01:21.613Z,82.32
2018-02-01T09:02:21.610Z,82.42
2018-02-01T09:03:21.629Z,82.60
2018-02-01T09:04:21.660Z,82.23
2018-02-01T09:05:21.673Z,82.32
2018-02-01T09:06:21.705Z,82.13
2018-02-01T09:07:21.719Z,81.94
2018-02-01T09:08:21.735Z,82.32
2018-02-01T09:09:21.761Z,82.04
2018-02-01T09:10:21.784Z,81.85
2018-02-01T09:11:21.807Z,81.09
2018-02-01T09:12:21.822Z,81.56
2018-02-01T09:13:21.846Z,81.27
2018-02-01T09:14:21.871Z,82.32
2018-02-01T09:15:21.885Z,81.37
2018-02-01T09:16:21.918Z,80.99
2018-02-01T09:17:21.930Z,81.37
2018-02-01T09:18:22.024Z,80.90
2018-02-01T09:19:21.979Z,80.62
2018-02-01T09:20:22.046Z,81.09
2018-02-01T09:21:22.016Z,81.27
2018-02-01T09:22:22.039Z,81.18
2018-02-01T09:23:22.068Z,80.80
2018-02-01T09:24:22.092Z,80.80
2018-02-01T09:25:22.109Z,80.80
2018-02-01T09:26:22.124Z,80.99
2018-02-01T09:27:22.150Z,80.90
2018-02-01T09:28:22.163Z,80.90
2018-02-01T09:29:22.198Z,80.90
2018-02-01T09:30:22.222Z,81.27
2018-02-01T09:31:22.305Z,80.99
2018-02-01T09:32:22.258Z,80.90
2018-02-01T09:33:22.277Z,80.99
2018-02-01T09:34:22.289Z,80.52
2018-02-01T09:35:22.318Z,81.18
2018-02-01T09:36:22.335Z,80.52
2018-02-01T09:37:22.363Z,81.18
2018-02-01T09:38:22.390Z,80.71
2018-02-01T09:39:22.409Z,80.71
2018-02-01T09:40:22.429Z,80.80
2018-02-01T09:41:22.447Z,80.71
2018-02-01T09:42:22.487Z,81.47
2018-02-01T09:43:22.486Z,80.71
2018-02-01T09:44:22.520Z,80.90
2018-02-01T09:45:22.529Z,80.14
2018-02-01T09:46:22.557Z,80.33
2018-02-01T09:47:22.572Z,80.24
2018-02-01T09:48:22.594Z,80.24
2018-02-01T09:49:22.616Z,80.04
2018-02-01T09:50:22.644Z,80.24
2018-02-01T09:51:22.663Z,80.04
2018-02-01T09:52:22.684Z,79.00
2018-02-01T09:53:22.698Z,79.19
2018-02-01T09:54:22.721Z,79.00
2018-02-01T09:55:22.746Z,79.28
2018-02-01T09:56:22.774Z,78.72
2018-02-01T09:57:22.808Z,78.28
2018-02-01T09:58:22.812Z,78.28
2018-02-01T09:59:22.838Z,78.47
2018-02-01T10:00:22.854Z,78.28
2018-02-01T10:01:22.874Z,78.38
2018-02-01T10:02:22.907Z,77.62
2018-02-01T10:03:22.912Z,77.33
2018-02-01T10:04:22.941Z,77.62
2018-02-01T10:05:22.973Z,77.71
2018-02-01T10:06:22.983Z,77.33
2018-02-01T10:07:23.001Z,77.52
2018-02-01T10:08:23.021Z,77.33
2018-02-01T10:09:23.068Z,76.95
2018-02-01T10:10:23.065Z,76.48
2018-02-01T10:11:23.085Z,76.57
2018-02-01T10:12:23.125Z,76.76
2018-02-01T10:13:23.140Z,76.67
2018-02-01T10:14:23.149Z,76.57
2018-02-01T10:15:23.176Z,76.76
2018-02-01T10:16:23.200Z,76.57
2018-02-01T10:17:23.217Z,77.14
2018-02-01T10:18:23.252Z,76.76
2018-02-01T10:19:23.266Z,76.86
2018-02-01T10:20:23.286Z,76.67
2018-02-01T10:21:23.324Z,76.20
2018-02-01T10:22:23.323Z,76.29
2018-02-01T10:23:23.357Z,75.72
2018-02-01T10:24:23.369Z,75.81
2018-02-01T10:25:23.388Z,75.81
2018-02-01T10:26:23.412Z,75.53
2018-02-01T10:27:23.455Z,75.15
2018-02-01T10:28:23.453Z,74.77
2018-02-01T10:29:23.480Z,74.58
2018-02-01T10:30:23.499Z,74.87
2018-02-01T10:31:23.520Z,74.68
2018-02-01T10:32:23.543Z,74.20
2018-02-01T10:33:23.568Z,73.96
2018-02-01T10:34:23.590Z,73.86
2018-02-01T10:35:23.624Z,73.67
2018-02-01T10:36:23.632Z,73.76
2018-02-01T10:37:23.656Z,73.29
2018-02-01T10:38:23.673Z,73.19
2018-02-01T10:39:23.698Z,73.00
2018-02-01T10:40:23.722Z,72.72
2018-02-01T10:41:23.741Z,72.15
2018-02-01T10:42:23.769Z,72.09
2018-02-01T10:43:23.800Z,71.62
2018-02-01T10:44:23.814Z,70.95
2018-02-01T10:45:23.832Z,70.76
2018-02-01T10:46:23.857Z,70.38
2018-02-01T10:47:23.879Z,70.19
2018-02-01T10:48:23.910Z,69.24
2018-02-01T10:49:23.917Z,69.91
2018-02-01T10:50:23.944Z,70.00
2018-02-01T10:51:23.967Z,69.62
2018-02-01T10:52:23.990Z,69.34
2018-02-01T10:53:24.069Z,69.09
2018-02-01T10:54:24.056Z,68.52
2018-02-01T10:55:24.059Z,68.04
2018-02-01T10:56:24.105Z,68.04
2018-02-01T10:57:24.114Z,67.38
2018-02-01T10:58:24.136Z,67.66
2018-02-01T10:59:24.160Z,67.66
2018-02-01T11:00:24.195Z,67.03
2018-02-01T11:01:24.206Z,65.99
2018-02-01T11:02:24.230Z,65.80
2018-02-01T11:03:24.257Z,65.70
2018-02-01T11:04:24.291Z,66.17
2018-02-01T11:05:24.438Z,65.89
2018-02-01T11:06:24.338Z,66.08
2018-02-01T11:07:24.404Z,66.27
2018-02-01T11:08:24.381Z,66.52
2018-02-01T11:09:24.406Z,67.09
2018-02-01T11:10:24.436Z,67.03
2018-02-01T11:11:24.465Z,67.47
2018-02-01T11:12:24.486Z,68.04
2018-02-01T11:13:24.516Z,67.66
2018-02-01T11:14:24.535Z,67.94
2018-02-01T11:15:24.557Z,68.13
2018-02-01T11:16:24.685Z,68.13
2018-02-01T11:17:24.617Z,68.33
2018-02-01T11:18:24.650Z,68.13
2018-02-01T11:19:24.665Z,69.09
2018-02-01T11:20:24.690Z,68.61
2018-02-01T11:21:24.719Z,68.61
2018-02-01T11:22:24.744Z,68.80
2018-02-01T11:23:24.762Z,68.52
2018-02-01T11:24:24.790Z,68.90
2018-02-01T11:25:24.811Z,69.15
2018-02-01T11:26:24.835Z,70.00
2018-02-01T11:27:24.872Z,70.10
2018-02-01T11:28:24.884Z,69.62
2018-02-01T11:29:24.920Z,70.38
2018-02-01T11:30:24.935Z,70.10
2018-02-01T11:31:24.959Z,70.86
2018-02-01T11:32:24.986Z,70.48
2018-02-01T11:33:25.017Z,70.76
2018-02-01T11:34:25.032Z,70.76
2018-02-01T11:35:25.058Z,70.86
2018-02-01T11:36:25.084Z,70.19
2018-02-01T11:37:25.145Z,69.71
2018-02-01T11:38:25.139Z,69.71
2018-02-01T11:39:25.154Z,68.77
2018-02-01T11:40:25.174Z,68.29
2018-02-01T11:41:25.200Z,67.63
2018-02-01T11:42:25.222Z,67.06
2018-02-01T11:43:25.257Z,67.15
2018-02-01T11:44:25.270Z,67.63
2018-02-01T11:45:25.302Z,68.29
2018-02-01T11:46:25.321Z,67.06
2018-02-01T11:47:25.347Z,67.25
2018-02-01T11:48:25.366Z,67.63
2018-02-01T11:49:25.385Z,67.21
2018-02-01T11:50:25.408Z,66.77
2018-02-01T11:51:25.435Z,66.96
2018-02-01T11:52:25.474Z,66.11
2018-02-01T11:53:25.478Z,66.20
2018-02-01T11:54:25.504Z,66.39
2018-02-01T11:55:25.525Z,66.67
2018-02-01T11:56:25.555Z,66.30
2018-02-01T11:57:25.584Z,66.77
2018-02-01T11:58:25.593Z,66.58
2018-02-01T11:59:25.616Z,66.49
2018-02-01T12:00:25.643Z,66.20
2018-02-01T12:01:25.667Z,66.20
2018-02-01T12:02:25.701Z,66.39
2018-02-01T12:03:25.710Z,66.11
2018-02-01T12:04:25.735Z,65.82
2018-02-01T12:05:25.754Z,65.82
2018-02-01T12:06:25.793Z,66.11
2018-02-01T12:07:25.808Z,65.92
2018-02-01T12:08:25.825Z,66.11
2018-02-01T12:09:25.853Z,66.67
2018-02-01T12:10:25.876Z,66.58
2018-02-01T12:11:25.906Z,66.39
2018-02-01T12:12:25.920Z,65.95
2018-02-01T12:13:26.073Z,65.28
2018-02-01T12:14:25.970Z,64.72
2018-02-01T12:15:26.062Z,64.62
2018-02-01T12:16:26.020Z,65.38
2018-02-01T12:17:26.036Z,64.37
2018-02-01T12:18:26.064Z,63.89
2018-02-01T12:19:26.095Z,63.89
2018-02-01T12:20:26.117Z,63.13
2018-02-01T12:21:26.131Z,62.12
2018-02-01T12:22:26.167Z,62.27
2018-02-01T12:23:26.179Z,63.26
2018-02-01T12:24:26.226Z,62.56
2018-02-01T12:25:26.243Z,62.97
2018-02-01T12:26:26.305Z,61.83
2018-02-01T12:27:26.280Z,60.82
2018-02-01T12:28:26.314Z,60.18
2018-02-01T12:29:26.348Z,58.75
2018-02-01T12:30:26.356Z,58.37
2018-02-01T12:31:26.383Z,58.11
2018-02-01T12:32:26.413Z,57.07
2018-02-01T12:33:26.443Z,56.59
2018-02-01T12:34:26.468Z,56.68
2018-02-01T12:35:26.490Z,56.87
2018-02-01T12:36:26.521Z,57.07
2018-02-01T12:37:26.585Z,57.16
2018-02-01T12:38:26.575Z,57.73
2018-02-01T12:39:26.602Z,58.75
2018-02-01T12:40:26.628Z,59.48
2018-02-01T12:41:26.658Z,60.78
2018-02-01T12:42:29.497Z,62.46
2018-02-01T12:43:26.717Z,62.85
2018-02-01T12:44:26.736Z,63.13
2018-02-01T12:45:26.767Z,63.04
2018-02-01T12:46:26.796Z,63.79
2018-02-01T12:47:26.815Z,63.76
2018-02-01T12:48:26.862Z,65.80
2018-02-01T12:49:26.863Z,65.00
2018-02-01T12:50:26.888Z,66.33
2018-02-01T12:51:26.916Z,65.47
2018-02-01T12:52:26.951Z,65.76